Time;durP1;ratioP1;P1;durP2;ratioP2;P2;SDS_P1;SDS_P2;PMS_P1;PMS_P2;Temp;Humidity;BMP_temperature;BMP_pressure;BME280_temperature;BME280_humidity;BME280_pressure;Samples;Min_cycle;Max_cycle;Signal;HPM_P1;HPM_P2
2022/10/08 00:00:54;;;;;;;0.00;0.00;;;12.70;99.90;;;;;;5037955;28;20491;-80
2022/10/08 00:03:23;;;;;;;0.00;0.00;;;12.70;99.90;;;;;;5054572;28;20052;-80
2022/10/08 00:05:57;;;;;;;0.00;0.00;;;12.70;99.90;;;;;;5054041;28;20127;-79
2022/10/08 00:08:24;;;;;;;0.00;0.00;;;12.70;99.90;;;;;;5038363;28;20092;-80
2022/10/08 00:10:59;;;;;;;0.45;0.32;;;12.70;99.90;;;;;;5054608;28;20158;-80
2022/10/08 00:13:26;;;;;;;1.13;0.10;;;12.80;99.90;;;;;;5054334;28;20045;-80
2022/10/08 00:15:52;;;;;;;0.10;0.10;;;12.80;99.90;;;;;;5037540;28;20048;-80
2022/10/08 00:18:19;;;;;;;3.40;0.80;;;12.70;99.90;;;;;;5054280;28;20136;-80
2022/10/08 00:20:45;;;;;;;0.00;0.00;;;12.80;99.90;;;;;;5037761;28;20060;-80
2022/10/08 00:23:11;;;;;;;1.98;0.00;;;12.70;99.90;;;;;;5037483;28;20048;-79
2022/10/08 00:25:42;;;;;;;0.03;0.00;;;12.70;99.90;;;;;;5054088;28;20040;-79
2022/10/08 00:28:10;;;;;;;1.98;0.65;;;12.60;99.90;;;;;;5036983;28;20048;-79
2022/10/08 00:30:38;;;;;;;0.22;0.20;;;12.50;99.90;;;;;;5037623;28;20047;-79
2022/10/08 00:33:05;;;;;;;0.00;0.00;;;12.40;99.90;;;;;;5054029;28;20065;-79
2022/10/08 00:35:38;;;;;;;0.00;0.00;;;12.40;99.90;;;;;;5037335;28;20060;-79
2022/10/08 00:38:06;;;;;;;0.00;0.00;;;12.30;99.90;;;;;;5037429;28;20462;-79
2022/10/08 00:40:43;;;;;;;0.00;0.00;;;12.30;99.90;;;;;;5037004;28;20378;-79
2022/10/08 00:43:16;;;;;;;0.00;0.00;;;12.20;99.90;;;;;;5053833;28;20053;-79
2022/10/08 00:45:43;;;;;;;0.00;0.00;;;12.20;99.90;;;;;;5037150;28;20087;-79
2022/10/08 00:48:14;;;;;;;0.00;0.00;;;12.20;99.90;;;;;;5036657;28;20404;-78
2022/10/08 00:50:40;;;;;;;0.00;0.00;;;12.20;99.90;;;;;;5036751;28;20477;-79
2022/10/08 00:53:08;;;;;;;0.00;0.00;;;12.20;99.90;;;;;;5053392;28;20059;-79
2022/10/08 00:55:36;;;;;;;0.00;0.00;;;12.20;99.90;;;;;;5037393;28;20448;-78
2022/10/08 00:58:10;;;;;;;0.00;0.00;;;12.20;99.90;;;;;;5053490;28;20122;-79
2022/10/08 01:00:36;;;;;;;0.00;0.00;;;12.20;99.90;;;;;;5037197;28;20444;-79
2022/10/08 01:03:02;;;;;;;0.00;0.00;;;12.20;99.90;;;;;;5037000;28;20053;-79
2022/10/08 01:05:56;;;;;;;0.45;0.15;;;12.20;99.90;;;;;;5036792;28;20118;-79
2022/10/08 01:09:01;;;;;;;0.00;0.00;;;12.20;99.90;;;;;;5053246;28;20075;-79
2022/10/08 01:11:26;;;;;;;0.00;0.00;;;12.10;99.90;;;;;;5036824;28;20087;-79
2022/10/08 01:13:57;;;;;;;0.25;0.25;;;12.10;99.90;;;;;;5036854;28;20057;-79
2022/10/08 01:16:44;;;;;;;0.00;0.00;;;12.10;99.90;;;;;;5053582;28;20509;-79
2022/10/08 01:19:31;;;;;;;0.00;0.00;;;12.10;99.90;;;;;;5053485;28;20083;-79
2022/10/08 01:22:37;;;;;;;0.00;0.00;;;12.10;99.90;;;;;;5053252;28;20041;-79
2022/10/08 01:25:34;;;;;;;0.00;0.00;;;12.20;99.90;;;;;;5036721;28;20088;-79
2022/10/08 01:28:29;;;;;;;0.00;0.00;;;12.20;99.90;;;;;;5036352;28;20049;-79
2022/10/08 01:31:11;;;;;;;0.00;0.00;;;12.10;99.90;;;;;;5037264;28;20045;-79
2022/10/08 01:33:59;;;;;;;0.00;0.00;;;12.20;99.90;;;;;;5036283;28;20052;-80
2022/10/08 01:36:29;;;;;;;0.03;0.00;;;12.20;99.90;;;;;;5036701;28;20087;-80
2022/10/08 01:39:00;;;;;;;1.08;0.60;;;12.20;99.90;;;;;;5052909;28;20053;-79
2022/10/08 01:41:29;;;;;;;0.00;0.00;;;12.20;99.90;;;;;;5036538;28;20186;-79
2022/10/08 01:44:03;;;;;;;0.03;0.03;;;12.20;99.90;;;;;;5053081;28;20253;-79
2022/10/08 01:46:30;;;;;;;0.15;0.15;;;12.20;99.90;;;;;;5052817;28;20040;-79
2022/10/08 01:49:01;;;;;;;0.00;0.00;;;12.20;99.90;;;;;;5052329;28;20057;-79
2022/10/08 01:51:43;;;;;;;0.00;0.00;;;12.20;99.90;;;;;;5052708;28;20402;-79
2022/10/08 01:54:12;;;;;;;0.00;0.00;;;12.20;99.90;;;;;;5036738;28;20428;-79
2022/10/08 01:56:39;;;;;;;0.00;0.00;;;12.20;99.90;;;;;;5036206;28;20049;-78
2022/10/08 01:59:10;;;;;;;0.00;0.00;;;12.20;99.90;;;;;;5052717;28;20053;-79
2022/10/08 02:01:48;;;;;;;0.20;0.20;;;12.20;99.90;;;;;;5035984;28;20497;-79
2022/10/08 02:04:33;;;;;;;0.00;0.00;;;12.20;99.90;;;;;;5053493;28;20057;-79
2022/10/08 02:07:07;;;;;;;;;;;12.20;99.90;;;;;;5036932;28;20049;-79
2022/10/08 02:09:39;;;;;;;0.30;0.03;;;12.20;99.90;;;;;;5053017;28;20018;-80
2022/10/08 02:12:06;;;;;;;0.00;0.00;;;12.20;99.90;;;;;;5052595;28;20049;-79
2022/10/08 02:14:35;;;;;;;0.00;0.00;;;12.20;99.90;;;;;;5052522;28;20530;-79
2022/10/08 02:17:10;;;;;;;0.00;0.00;;;12.20;99.90;;;;;;5052645;28;20158;-79
2022/10/08 02:19:48;;;;;;;0.00;0.00;;;12.20;99.90;;;;;;5036627;28;20059;-79
2022/10/08 02:22:16;;;;;;;0.00;0.00;;;12.20;99.90;;;;;;5035865;28;20099;-79
2022/10/08 02:24:49;;;;;;;0.00;0.00;;;12.20;99.90;;;;;;5036001;28;20041;-79
2022/10/08 02:27:17;;;;;;;0.00;0.00;;;12.20;99.90;;;;;;5036091;28;20152;-79
2022/10/08 02:30:03;;;;;;;0.00;0.00;;;12.20;99.90;;;;;;5038883;28;20116;-79
2022/10/08 02:32:35;;;;;;;0.00;0.00;;;12.20;99.90;;;;;;5056181;28;20568;-79
2022/10/08 02:35:13;;;;;;;0.00;0.00;;;12.20;99.90;;;;;;5039606;28;20095;-79
2022/10/08 02:37:52;;;;;;;0.25;0.25;;;12.20;99.90;;;;;;5056682;28;20040;-79
2022/10/08 02:40:18;;;;;;;0.20;0.20;;;12.10;99.90;;;;;;5056141;28;20057;-79
2022/10/08 02:42:51;;;;;;;0.00;0.00;;;12.10;99.90;;;;;;5056055;28;20095;-79
2022/10/08 02:45:31;;;;;;;0.00;0.00;;;12.10;99.90;;;;;;5056114;28;20041;-79
2022/10/08 02:48:10;;;;;;;0.00;0.00;;;12.10;99.90;;;;;;5038484;28;20099;-79
2022/10/08 02:50:40;;;;;;;0.00;0.00;;;12.10;99.90;;;;;;5056120;28;20045;-79
2022/10/08 02:53:06;;;;;;;0.40;0.40;;;12.10;99.90;;;;;;5055873;28;20090;-79
2022/10/08 02:55:47;;;;;;;0.10;0.10;;;12.10;99.90;;;;;;5055604;28;20041;-79
2022/10/08 02:58:14;;;;;;;0.00;0.00;;;12.00;99.90;;;;;;5055703;28;20056;-79
2022/10/08 03:00:50;;;;;;;0.10;0.03;;;12.00;99.90;;;;;;5038823;28;20076;-80
2022/10/08 03:03:24;;;;;;;0.08;0.08;;;12.10;99.90;;;;;;5039036;28;20493;-79
2022/10/08 03:05:51;;;;;;;0.00;0.00;;;12.00;99.90;;;;;;5055373;28;20051;-79
2022/10/08 03:08:18;;;;;;;0.00;0.00;;;12.00;99.90;;;;;;5055321;28;20047;-79
2022/10/08 03:10:44;;;;;;;0.00;0.00;;;12.00;99.90;;;;;;5055420;28;20056;-79
2022/10/08 03:13:11;;;;;;;0.00;0.00;;;12.00;99.90;;;;;;5055987;28;20037;-79
2022/10/08 03:15:40;;;;;;;0.00;0.00;;;12.00;99.90;;;;;;5038702;28;20060;-79
2022/10/08 03:18:09;;;;;;;0.00;0.00;;;11.90;99.90;;;;;;5055415;28;20547;-79
2022/10/08 03:20:44;;;;;;;0.00;0.00;;;11.90;99.90;;;;;;5055164;28;20522;-80
2022/10/08 03:23:12;;;;;;;0.25;0.22;;;11.90;99.90;;;;;;5038361;28;20435;-79
2022/10/08 03:25:38;;;;;;;0.00;0.00;;;11.80;99.90;;;;;;5055395;28;20080;-79
2022/10/08 03:28:03;;;;;;;0.00;0.00;;;11.80;99.90;;;;;;5054728;28;20088;-79
2022/10/08 03:30:29;;;;;;;0.00;0.00;;;11.80;99.90;;;;;;5038296;28;20051;-79
2022/10/08 03:32:55;;;;;;;0.00;0.00;;;11.70;99.90;;;;;;5055369;28;20037;-79
2022/10/08 03:35:20;;;;;;;0.00;0.00;;;11.70;99.90;;;;;;5054987;28;20044;-80
2022/10/08 03:37:46;;;;;;;0.00;0.00;;;11.60;99.90;;;;;;5054748;28;20083;-79
2022/10/08 03:40:11;;;;;;;0.10;0.00;;;11.60;99.90;;;;;;5037296;28;20061;-79
2022/10/08 03:42:37;;;;;;;0.00;0.00;;;11.60;99.90;;;;;;5054708;28;20044;-79
2022/10/08 03:45:04;;;;;;;0.00;0.00;;;11.60;99.90;;;;;;5054784;28;20610;-79
2022/10/08 03:47:29;;;;;;;0.00;0.00;;;11.60;99.90;;;;;;5037586;28;20056;-79
2022/10/08 03:49:55;;;;;;;0.00;0.00;;;11.60;99.90;;;;;;5037892;28;20427;-79
2022/10/08 03:52:20;;;;;;;0.00;0.00;;;11.60;99.90;;;;;;5037781;28;20056;-80
2022/10/08 03:54:46;;;;;;;0.00;0.00;;;11.60;99.90;;;;;;5054791;28;20049;-79
2022/10/08 03:57:11;;;;;;;0.85;0.00;;;11.60;99.90;;;;;;5038118;28;20045;-79
2022/10/08 03:59:37;;;;;;;0.00;0.00;;;11.60;99.90;;;;;;5054397;28;20056;-79
2022/10/08 04:02:03;;;;;;;0.00;0.00;;;11.50;99.90;;;;;;5037829;28;20057;-79
2022/10/08 04:04:28;;;;;;;0.00;0.00;;;11.50;99.90;;;;;;5037938;28;20107;-79
2022/10/08 04:06:54;;;;;;;0.10;0.00;;;11.50;99.90;;;;;;5054062;28;20095;-79
2022/10/08 04:09:19;;;;;;;0.00;0.00;;;11.50;99.90;;;;;;5037695;28;20084;-80
2022/10/08 04:11:45;;;;;;;0.00;0.00;;;11.50;99.90;;;;;;5037517;28;20194;-79
2022/10/08 04:14:11;;;;;;;0.00;0.00;;;11.50;99.90;;;;;;5037410;28;20396;-79
2022/10/08 04:16:36;;;;;;;0.00;0.00;;;11.50;99.90;;;;;;5053959;28;20049;-80
2022/10/08 04:19:02;;;;;;;0.00;0.00;;;11.50;99.90;;;;;;5054358;28;20045;-79
2022/10/08 04:21:29;;;;;;;0.00;0.00;;;11.40;99.90;;;;;;5037332;28;20044;-79
2022/10/08 04:23:55;;;;;;;0.00;0.00;;;11.40;99.90;;;;;;5037463;28;20048;-79
2022/10/08 04:26:20;;;;;;;0.00;0.00;;;11.40;99.90;;;;;;5037537;28;20140;-80
2022/10/08 04:28:46;;;;;;;0.00;0.00;;;11.40;99.90;;;;;;5053781;28;20127;-80
2022/10/08 04:31:20;;;;;;;0.00;0.00;;;11.40;99.90;;;;;;5036942;28;20061;-79
2022/10/08 04:33:46;;;;;;;2.65;0.65;;;11.30;99.90;;;;;;5037291;28;20389;-80
2022/10/08 04:36:15;;;;;;;0.52;0.20;;;11.40;99.90;;;;;;5037103;28;20126;-80
2022/10/08 04:38:42;;;;;;;0.00;0.00;;;11.30;99.90;;;;;;5053587;28;20041;-80
2022/10/08 04:41:16;;;;;;;0.00;0.00;;;11.30;99.90;;;;;;5037111;28;20055;-80
2022/10/08 04:43:43;;;;;;;0.10;0.10;;;11.40;99.90;;;;;;5053577;28;20040;-80
2022/10/08 04:46:11;;;;;;;0.00;0.00;;;11.40;99.90;;;;;;5053626;28;20043;-80
2022/10/08 04:48:37;;;;;;;0.00;0.00;;;11.40;99.90;;;;;;5036628;28;20053;-79
2022/10/08 04:51:05;;;;;;;0.00;0.00;;;11.40;99.90;;;;;;5036985;28;20079;-79
2022/10/08 04:53:31;;;;;;;0.00;0.00;;;11.30;99.90;;;;;;5053828;28;20395;-80
2022/10/08 04:56:10;;;;;;;0.10;0.00;;;11.40;99.90;;;;;;5036821;28;20135;-80
2022/10/08 04:58:35;;;;;;;0.00;0.00;;;11.40;99.90;;;;;;5036385;28;20045;-78
2022/10/08 05:01:06;;;;;;;0.00;0.00;;;11.40;99.90;;;;;;5036661;28;20052;-78
2022/10/08 05:03:39;;;;;;;0.43;0.00;;;11.50;99.90;;;;;;5036489;28;20417;-78
2022/10/08 05:06:05;;;;;;;0.00;0.00;;;11.40;99.90;;;;;;5036796;28;20091;-79
2022/10/08 05:08:32;;;;;;;0.00;0.00;;;11.40;99.90;;;;;;5053618;28;20067;-78
2022/10/08 05:10:57;;;;;;;0.00;0.00;;;11.50;99.90;;;;;;5053175;28;20048;-79
2022/10/08 05:13:23;;;;;;;0.00;0.00;;;11.50;99.90;;;;;;5053212;28;20045;-79
2022/10/08 05:15:49;;;;;;;0.10;0.10;;;11.50;99.90;;;;;;5036081;28;20591;-79
2022/10/08 05:18:14;;;;;;;0.20;0.00;;;11.50;99.90;;;;;;5053165;28;20068;-79
2022/10/08 05:20:40;;;;;;;0.75;0.22;;;11.50;99.90;;;;;;5036620;28;20554;-79
2022/10/08 05:23:06;;;;;;;0.00;0.00;;;11.40;99.90;;;;;;5052623;28;20049;-79
2022/10/08 05:25:33;;;;;;;0.00;0.00;;;11.40;99.90;;;;;;5036436;28;20037;-78
2022/10/08 05:28:00;;;;;;;0.00;0.00;;;11.40;99.90;;;;;;5035811;28;20049;-79
2022/10/08 05:30:25;;;;;;;0.00;0.00;;;11.30;99.90;;;;;;5035996;28;20519;-79
2022/10/08 05:32:51;;;;;;;0.00;0.00;;;11.30;99.90;;;;;;5053142;28;20041;-81
2022/10/08 05:35:17;;;;;;;0.15;0.05;;;11.30;99.90;;;;;;5036254;28;20098;-79
2022/10/08 05:37:42;;;;;;;0.10;0.05;;;11.30;99.90;;;;;;5052820;28;20128;-79
2022/10/08 05:40:08;;;;;;;0.00;0.00;;;11.30;99.90;;;;;;5036115;28;20053;-79
2022/10/08 05:42:34;;;;;;;0.22;0.22;;;11.30;99.90;;;;;;5052806;28;20052;-79
2022/10/08 05:44:59;;;;;;;0.00;0.00;;;11.30;99.90;;;;;;5052771;28;20040;-80
2022/10/08 05:47:25;;;;;;;0.00;0.00;;;11.30;99.90;;;;;;5052374;28;20128;-80
2022/10/08 05:49:51;;;;;;;0.00;0.00;;;11.20;99.90;;;;;;5053143;28;20135;-80
2022/10/08 05:52:16;;;;;;;0.10;0.10;;;11.20;99.90;;;;;;5052896;28;20103;-81
2022/10/08 05:54:42;;;;;;;0.00;0.00;;;11.20;99.90;;;;;;5037051;28;20053;-80
2022/10/08 05:57:08;;;;;;;0.00;0.00;;;11.20;99.90;;;;;;5035951;28;20048;-80
2022/10/08 05:59:33;;;;;;;0.00;0.00;;;11.20;99.90;;;;;;5035983;28;20136;-80
2022/10/08 06:01:59;;;;;;;0.00;0.00;;;11.20;99.90;;;;;;5036256;28;20079;-81
2022/10/08 06:04:24;;;;;;;0.00;0.00;;;11.10;99.90;;;;;;5055213;28;20044;-81
2022/10/08 06:06:50;;;;;;;0.00;0.00;;;11.00;99.90;;;;;;5054503;28;20048;-80
2022/10/08 06:09:19;;;;;;;0.00;0.00;;;11.10;99.90;;;;;;5054915;28;20044;-80
2022/10/08 06:11:45;;;;;;;0.00;0.00;;;11.00;99.90;;;;;;5055610;28;20059;-80
2022/10/08 06:14:13;;;;;;;0.00;0.00;;;11.10;99.90;;;;;;5039332;28;20470;-80
2022/10/08 06:16:39;;;;;;;0.30;0.17;;;11.00;99.90;;;;;;5056224;28;20052;-80
2022/10/08 06:19:06;;;;;;;0.57;0.32;;;11.10;99.90;;;;;;5056565;28;20424;-80
2022/10/08 06:21:33;;;;;;;0.00;0.00;;;11.00;99.90;;;;;;5039095;28;20057;-80
2022/10/08 06:24:01;;;;;;;0.00;0.00;;;11.10;99.90;;;;;;5056005;28;20087;-80
2022/10/08 06:26:31;;;;;;;0.00;0.00;;;11.10;99.90;;;;;;5055524;28;20053;-81
2022/10/08 06:28:56;;;;;;;0.10;0.10;;;11.10;99.90;;;;;;5056116;28;20186;-81
2022/10/08 06:31:22;;;;;;;0.00;0.00;;;11.10;99.90;;;;;;5056515;28;20503;-80
2022/10/08 06:33:48;;;;;;;0.00;0.00;;;11.10;99.90;;;;;;5040315;28;20079;-80
2022/10/08 06:36:19;;;;;;;0.00;0.00;;;11.10;99.90;;;;;;5056788;28;20051;-81
2022/10/08 06:38:49;;;;;;;0.00;0.00;;;11.10;99.90;;;;;;5039448;28;20048;-81
2022/10/08 06:41:15;;;;;;;0.00;0.00;;;11.10;99.90;;;;;;5055323;28;20060;-81
2022/10/08 06:43:40;;;;;;;0.00;0.00;;;11.10;99.90;;;;;;5056058;28;20358;-80
2022/10/08 06:46:06;;;;;;;0.00;0.00;;;11.10;99.90;;;;;;5056133;28;20138;-81
2022/10/08 06:48:32;;;;;;;0.00;0.00;;;11.20;99.90;;;;;;5038231;28;20485;-81
2022/10/08 06:50:59;;;;;;;0.00;0.00;;;11.30;99.90;;;;;;5054975;28;20049;-81
2022/10/08 06:53:25;;;;;;;0.00;0.00;;;11.40;99.90;;;;;;5038883;28;20076;-81
2022/10/08 06:56:02;;;;;;;0.00;0.00;;;11.30;99.90;;;;;;5055378;28;20053;-81
2022/10/08 06:58:28;;;;;;;0.00;0.00;;;11.40;99.90;;;;;;5039311;28;20104;-81
2022/10/08 07:01:24;;;;;;;0.00;0.00;;;11.40;99.90;;;;;;5039034;28;20045;-81
2022/10/08 07:03:52;;;;;;;0.00;0.00;;;11.40;99.90;;;;;;5054043;28;20053;-81
2022/10/08 07:06:17;;;;;;;0.00;0.00;;;11.40;99.90;;;;;;5038899;28;20441;-81
2022/10/08 07:08:44;;;;;;;0.98;0.00;;;11.50;99.90;;;;;;5055459;28;20131;-81
2022/10/08 07:11:16;;;;;;;0.00;0.00;;;11.60;99.90;;;;;;5055853;28;20041;-81
2022/10/08 07:13:42;;;;;;;0.00;0.00;;;11.70;99.90;;;;;;5038833;28;20094;-81
2022/10/08 07:16:16;;;;;;;0.00;0.00;;;11.70;99.90;;;;;;5055348;28;20124;-81
2022/10/08 07:18:42;;;;;;;0.00;0.00;;;11.80;99.90;;;;;;5055351;28;20123;-81
2022/10/08 07:21:11;;;;;;;0.30;0.30;;;11.80;99.90;;;;;;5038467;28;20106;-81
2022/10/08 07:23:37;;;;;;;0.00;0.00;;;11.90;99.90;;;;;;5054915;28;20037;-80
2022/10/08 07:26:05;;;;;;;0.00;0.00;;;11.80;99.90;;;;;;5038227;28;20055;-81
2022/10/08 07:28:34;;;;;;;0.13;0.13;;;11.80;99.90;;;;;;5037964;28;20052;-81
2022/10/08 07:31:04;;;;;;;0.00;0.00;;;11.70;99.90;;;;;;5038335;28;20536;-81
2022/10/08 07:33:30;;;;;;;0.00;0.00;;;11.70;99.90;;;;;;5054961;28;20439;-81
2022/10/08 07:36:17;;;;;;;0.00;0.00;;;11.70;99.90;;;;;;5054870;28;20051;-81
2022/10/08 07:38:43;;;;;;;0.00;0.00;;;11.80;99.90;;;;;;5038564;28;20045;-81
2022/10/08 07:41:10;;;;;;;1.55;0.75;;;11.80;99.90;;;;;;5037945;28;20464;-81
2022/10/08 07:43:40;;;;;;;0.00;0.00;;;11.90;99.90;;;;;;5038025;28;20064;-81
2022/10/08 07:46:06;;;;;;;0.00;0.00;;;12.00;99.90;;;;;;5038014;28;20115;-81
2022/10/08 07:48:32;;;;;;;0.00;0.00;;;12.00;99.90;;;;;;5054141;28;20171;-81
2022/10/08 07:51:09;;;;;;;0.00;0.00;;;12.10;99.90;;;;;;5038002;28;20075;-81
2022/10/08 07:53:35;;;;;;;0.00;0.00;;;12.20;99.90;;;;;;5054383;28;20049;-81
2022/10/08 07:56:02;;;;;;;0.00;0.00;;;12.20;99.90;;;;;;5037873;28;20141;-83
2022/10/08 07:58:27;;;;;;;0.00;0.00;;;12.20;99.90;;;;;;5054048;28;20060;-81
2022/10/08 08:00:57;;;;;;;0.00;0.00;;;12.20;99.90;;;;;;5037740;28;20057;-81
2022/10/08 08:03:24;;;;;;;0.00;0.00;;;12.30;99.90;;;;;;5054212;28;20048;-81
2022/10/08 08:05:49;;;;;;;0.00;0.00;;;12.30;99.90;;;;;;5037929;28;20041;-81
2022/10/08 08:08:15;;;;;;;0.00;0.00;;;12.40;99.90;;;;;;5037624;28;20159;-81
2022/10/08 08:10:41;;;;;;;1.60;0.65;;;12.50;99.90;;;;;;5037769;28;20037;-81
2022/10/08 08:13:06;;;;;;;0.00;0.00;;;12.50;99.90;;;;;;5037431;28;20052;-82
2022/10/08 08:15:32;;;;;;;0.00;0.00;;;12.60;99.90;;;;;;5055270;28;20154;-81
2022/10/08 08:17:57;;;;;;;0.17;0.17;;;12.70;99.90;;;;;;5054318;28;20397;-80
2022/10/08 08:20:23;;;;;;;0.00;0.00;;;12.70;99.90;;;;;;5037691;28;20530;-80
2022/10/08 08:22:49;;;;;;;0.25;0.00;;;12.70;99.90;;;;;;5054769;28;20051;-80
2022/10/08 08:25:14;;;;;;;0.00;0.00;;;12.80;99.90;;;;;;5054814;28;20080;-79
2022/10/08 08:27:40;;;;;;;0.00;0.00;;;12.90;99.90;;;;;;5036714;28;20103;-80
2022/10/08 08:30:06;;;;;;;0.20;0.00;;;13.10;99.90;;;;;;5054409;28;20111;-80
2022/10/08 08:32:32;;;;;;;0.20;0.20;;;13.20;99.90;;;;;;5037019;28;20130;-80
2022/10/08 08:34:58;;;;;;;0.17;0.17;;;13.50;99.90;;;;;;5037514;28;20045;-80
2022/10/08 08:37:23;;;;;;;3.60;0.47;;;13.80;99.90;;;;;;5053763;28;20047;-81
2022/10/08 08:39:49;;;;;;;0.00;0.00;;;14.10;99.90;;;;;;5037311;28;20098;-81
2022/10/08 08:42:43;;;;;;;0.13;0.13;;;14.30;99.90;;;;;;5037190;28;20048;-81
2022/10/08 08:45:24;;;;;;;0.22;0.22;;;14.40;99.90;;;;;;5054309;28;20428;-81
2022/10/08 08:48:04;;;;;;;0.30;0.30;;;14.50;99.90;;;;;;5053525;28;20463;-81
2022/10/08 08:50:37;;;;;;;0.20;0.10;;;14.80;99.90;;;;;;5054424;28;20408;-81
2022/10/08 08:53:04;;;;;;;0.00;0.00;;;14.90;99.90;;;;;;5054335;28;20044;-81
2022/10/08 08:55:39;;;;;;;0.00;0.00;;;15.00;99.90;;;;;;5037175;28;20132;-82
2022/10/08 08:58:34;;;;;;;0.00;0.00;;;15.10;99.90;;;;;;5037006;28;20096;-81
2022/10/08 09:01:23;;;;;;;0.00;0.00;;;15.20;99.90;;;;;;5054341;28;20051;-82
2022/10/08 09:03:55;;;;;;;4.55;1.17;;;15.40;99.90;;;;;;4980371;28;20108;-82
2022/10/08 09:06:24;;;;;;;0.00;0.00;;;15.60;99.90;;;;;;5013058;28;20058;-81
2022/10/08 09:09:00;;;;;;;0.00;0.00;;;15.70;99.90;;;;;;5029497;28;20138;-83
2022/10/08 09:11:28;;;;;;;0.00;0.00;;;15.80;99.90;;;;;;4980456;28;20057;-82
2022/10/08 09:14:13;;;;;;;0.00;0.00;;;15.80;99.90;;;;;;5012902;28;20053;-83
2022/10/08 09:16:39;;;;;;;0.17;0.00;;;15.80;99.90;;;;;;4996746;28;20050;-83
2022/10/08 09:19:05;;;;;;;0.00;0.00;;;15.70;99.90;;;;;;4996721;28;20127;-83
2022/10/08 09:21:33;;;;;;;0.32;0.32;;;15.90;99.90;;;;;;4980256;28;20551;-81
2022/10/08 09:23:59;;;;;;;0.00;0.00;;;15.90;99.90;;;;;;5029373;28;20050;-85
2022/10/08 09:26:34;;;;;;;0.00;0.00;;;16.00;99.90;;;;;;5028975;28;20563;-77
2022/10/08 09:29:01;;;;;;;0.00;0.00;;;16.00;99.90;;;;;;4995909;28;20140;-83
2022/10/08 09:31:30;;;;;;;0.00;0.00;;;16.10;99.90;;;;;;5012865;28;20053;-85
2022/10/08 09:34:04;;;;;;;0.00;0.00;;;16.10;99.90;;;;;;4996199;28;20108;-80
2022/10/08 09:36:51;;;;;;;0.10;0.00;;;16.30;99.90;;;;;;4996423;28;20053;-80
2022/10/08 09:39:22;;;;;;;15.13;0.93;;;16.40;99.90;;;;;;5031735;28;20285;-80
2022/10/08 09:42:12;;;;;;;0.00;0.00;;;16.50;99.90;;;;;;5084151;28;20049;-80
2022/10/08 09:44:50;;;;;;;0.52;0.52;;;16.40;99.90;;;;;;5041298;28;20049;-80
2022/10/08 09:47:21;;;;;;;0.00;0.00;;;16.40;99.90;;;;;;5040234;28;20148;-80
2022/10/08 09:50:06;;;;;;;0.00;0.00;;;16.30;99.90;;;;;;5072868;28;20049;-80
2022/10/08 09:52:35;;;;;;;0.00;0.00;;;16.30;99.90;;;;;;5039368;28;20052;-80
2022/10/08 09:55:20;;;;;;;0.00;0.00;;;16.60;99.90;;;;;;5039585;28;20057;-80
2022/10/08 09:57:47;;;;;;;;;;;16.80;99.90;;;;;;5040912;28;20094;-80
2022/10/08 10:00:31;;;;;;;0.00;0.00;;;16.90;99.90;;;;;;5056966;28;19973;-79
2022/10/08 10:02:59;;;;;;;0.00;0.00;;;16.70;99.90;;;;;;5057870;28;20049;-80
2022/10/08 10:05:28;;;;;;;0.00;0.00;;;16.40;99.90;;;;;;5039741;28;20063;-79
2022/10/08 10:07:54;;;;;;;2.17;0.45;;;16.20;99.90;;;;;;5040213;28;20134;-80
2022/10/08 10:10:26;;;;;;;0.30;0.30;;;15.80;99.90;;;;;;5057335;28;20076;-80
2022/10/08 10:13:01;;;;;;;0.00;0.00;;;15.60;99.90;;;;;;5040094;28;20045;-79
2022/10/08 10:15:42;;;;;;;0.25;0.25;;;15.80;99.90;;;;;;5039928;28;20037;-79
2022/10/08 10:18:13;;;;;;;0.00;0.00;;;16.20;99.90;;;;;;5056579;28;20061;-80
2022/10/08 10:20:47;;;;;;;0.00;0.00;;;16.60;99.90;;;;;;5040518;28;20056;-80
2022/10/08 10:23:21;;;;;;;0.00;0.00;;;16.90;99.90;;;;;;5040238;28;20048;-79
2022/10/08 10:26:10;;;;;;;0.37;0.37;;;17.10;99.90;;;;;;5040126;28;20064;-80
2022/10/08 10:28:47;;;;;;;0.00;0.00;;;17.40;99.90;;;;;;5056166;28;20484;-80
2022/10/08 10:31:16;;;;;;;0.63;0.28;;;17.60;99.90;;;;;;5039629;28;20485;-80
2022/10/08 10:33:54;;;;;;;1.08;0.45;;;17.70;99.90;;;;;;5055800;28;20080;-81
2022/10/08 10:36:21;;;;;;;0.00;0.00;;;17.80;99.90;;;;;;5037496;28;20053;-83
2022/10/08 10:39:19;;;;;;;0.00;0.00;;;17.70;99.90;;;;;;5037030;28;20045;-81
2022/10/08 10:42:10;;;;;;;0.00;0.00;;;17.70;99.90;;;;;;5038426;28;20049;-80
2022/10/08 10:45:00;;;;;;;0.10;0.05;;;17.70;99.90;;;;;;5056333;28;20090;-79
2022/10/08 10:47:30;;;;;;;1.77;0.68;;;17.50;99.90;;;;;;5039166;28;20068;-79
2022/10/08 10:49:57;;;;;;;0.20;0.10;;;17.30;99.90;;;;;;5038611;28;20052;-79
2022/10/08 10:53:01;;;;;;;0.00;0.00;;;17.40;99.90;;;;;;5055407;28;20052;-80
2022/10/08 10:55:50;;;;;;;0.00;0.00;;;17.50;99.90;;;;;;5039559;28;20053;-79
2022/10/08 10:58:51;;;;;;;0.13;0.13;;;17.80;99.90;;;;;;5039376;28;20060;-80
2022/10/08 11:01:37;;;;;;;0.00;0.00;;;17.80;99.90;;;;;;5039262;28;20515;-80
2022/10/08 11:04:25;;;;;;;0.00;0.00;;;17.70;99.90;;;;;;5055507;28;20044;-81
2022/10/08 11:06:54;;;;;;;0.00;0.00;;;17.40;99.90;;;;;;5038950;28;20080;-80
2022/10/08 11:09:40;;;;;;;0.00;0.00;;;16.90;99.90;;;;;;5039300;28;20045;-80
2022/10/08 11:12:24;;;;;;;0.00;0.00;;;16.60;99.90;;;;;;5055460;28;20486;-80
2022/10/08 11:15:08;;;;;;;0.00;0.00;;;16.30;99.90;;;;;;5039675;28;20044;-79
2022/10/08 11:17:54;;;;;;;0.00;0.00;;;16.10;99.90;;;;;;5055245;28;20500;-79
2022/10/08 11:20:46;;;;;;;0.00;0.00;;;16.00;99.90;;;;;;5055040;28;20095;-79
2022/10/08 11:23:26;;;;;;;0.15;0.05;;;16.20;99.90;;;;;;5055320;28;20045;-79
2022/10/08 11:26:01;;;;;;;0.00;0.00;;;16.10;99.90;;;;;;5055568;28;20052;-79
2022/10/08 11:28:33;;;;;;;;;;;15.90;99.90;;;;;;5038803;28;20370;-79
2022/10/08 11:31:12;;;;;;;0.57;0.52;;;15.70;99.90;;;;;;5038619;28;19973;-79
2022/10/08 11:33:39;;;;;;;0.00;0.00;;;15.70;99.90;;;;;;5038477;28;20044;-79
2022/10/08 11:36:31;;;;;;;0.00;0.00;;;15.80;99.90;;;;;;5038338;28;20067;-79
2022/10/08 11:39:14;;;;;;;0.00;0.00;;;16.00;99.90;;;;;;5038486;28;20036;-79
2022/10/08 11:42:07;;;;;;;0.00;0.00;;;16.00;99.90;;;;;;5038643;28;20048;-79
2022/10/08 11:44:32;;;;;;;0.00;0.00;;;16.10;99.90;;;;;;5038742;28;20131;-80
2022/10/08 11:47:38;;;;;;;0.00;0.00;;;16.00;99.90;;;;;;5037873;28;20560;-80
2022/10/08 11:50:15;;;;;;;0.00;0.00;;;16.10;99.90;;;;;;5036411;28;20483;-79
2022/10/08 11:52:41;;;;;;;0.70;0.15;;;16.30;99.90;;;;;;5038402;28;20088;-79
2022/10/08 11:55:21;;;;;;;0.00;0.00;;;16.60;99.90;;;;;;5054852;28;20076;-80
2022/10/08 11:58:20;;;;;;;0.00;0.00;;;16.80;99.90;;;;;;5038725;28;20037;-80
2022/10/08 12:00:47;;;;;;;0.00;0.00;;;16.90;99.90;;;;;;5033038;28;20512;-80
2022/10/08 12:03:29;;;;;;;0.00;0.00;;;16.70;99.90;;;;;;5017147;28;20053;-80
2022/10/08 12:06:25;;;;;;;0.00;0.00;;;16.40;99.90;;;;;;5001173;28;20103;-80
2022/10/08 12:08:59;;;;;;;0.00;0.00;;;16.10;99.90;;;;;;5015338;28;20053;-80
2022/10/08 12:11:30;;;;;;;0.10;0.10;;;16.20;99.90;;;;;;5017463;28;20107;-81
2022/10/08 12:14:11;;;;;;;0.03;0.03;;;16.00;99.90;;;;;;5017583;28;20053;-81
2022/10/08 12:16:56;;;;;;;0.00;0.00;;;15.80;99.90;;;;;;5017076;28;20608;-81
2022/10/08 12:19:37;;;;;;;0.00;0.00;;;15.60;99.90;;;;;;5016594;28;20057;-81
2022/10/08 12:22:16;;;;;;;0.00;0.00;;;15.80;99.90;;;;;;5017003;28;20046;-81
2022/10/08 12:24:47;;;;;;;0.00;0.00;;;16.10;99.90;;;;;;5016801;28;20480;-81
2022/10/08 12:27:16;;;;;;;0.00;0.00;;;16.60;99.90;;;;;;5016768;28;20064;-81
2022/10/08 12:29:59;;;;;;;0.00;0.00;;;16.90;99.90;;;;;;5016348;28;20075;-80
2022/10/08 12:32:30;;;;;;;0.15;0.15;;;16.90;99.90;;;;;;5000346;28;20084;-80
2022/10/08 12:34:57;;;;;;;0.00;0.00;;;16.80;99.90;;;;;;5000369;28;20049;-80
2022/10/08 12:37:39;;;;;;;0.45;0.22;;;16.60;99.90;;;;;;5038305;28;20057;-81
2022/10/08 12:40:35;;;;;;;0.00;0.00;;;16.50;99.60;;;;;;5054379;28;20049;-80
2022/10/08 12:43:16;;;;;;;0.10;0.10;;;16.40;99.10;;;;;;5014187;28;20502;-81
2022/10/08 12:45:51;;;;;;;0.00;0.00;;;16.30;99.50;;;;;;5012739;28;20060;-83
2022/10/08 12:48:30;;;;;;;0.00;0.00;;;16.40;99.90;;;;;;5020239;28;20053;-82
2022/10/08 12:51:35;;;;;;;12.85;0.98;;;16.50;99.90;;;;;;4998881;28;20489;-82
2022/10/08 12:54:01;;;;;;;0.00;0.00;;;16.80;99.80;;;;;;5032083;28;20052;-82
2022/10/08 12:56:29;;;;;;;0.00;0.00;;;17.00;99.90;;;;;;5015765;28;20038;-82
2022/10/08 12:59:02;;;;;;;0.00;0.00;;;17.10;99.40;;;;;;4997928;28;20060;-84
2022/10/08 13:01:28;;;;;;;6.55;0.30;;;17.20;97.20;;;;;;5015454;28;20053;-85
2022/10/08 13:04:18;;;;;;;0.00;0.00;;;17.30;98.60;;;;;;4998106;28;20053;-81
2022/10/08 13:06:45;;;;;;;0.00;0.00;;;17.40;98.70;;;;;;4940311;28;20145;-82
2022/10/08 13:09:24;;;;;;;0.00;0.00;;;17.60;99.00;;;;;;4956848;28;20442;-82
2022/10/08 13:11:50;;;;;;;0.00;0.00;;;17.70;99.50;;;;;;4956731;28;20058;-82
2022/10/08 13:14:26;;;;;;;0.00;0.00;;;17.80;97.60;;;;;;4957006;28;20054;-86